sensor_id;sensor_type;location;lat;lon;timestamp;temperature;humidity
27940;DHT22;15275;51.716;14.324;2023-08-08T00:01:05;19.00;80.10
27940;DHT22;15275;51.716;14.324;2023-08-08T00:03:31;18.90;77.40
27940;DHT22;15275;51.716;14.324;2023-08-08T00:05:56;18.90;78.20
27940;DHT22;15275;51.716;14.324;2023-08-08T00:08:22;18.90;77.40
27940;DHT22;15275;51.716;14.324;2023-08-08T00:10:48;18.80;70.50
27940;DHT22;15275;51.716;14.324;2023-08-08T00:13:13;18.80;73.30
27940;DHT22;15275;51.716;14.324;2023-08-08T00:15:39;18.80;78.90
27940;DHT22;15275;51.716;14.324;2023-08-08T00:18:05;18.80;75.30
27940;DHT22;15275;51.716;14.324;2023-08-08T00:20:31;18.70;73.90
27940;DHT22;15275;51.716;14.324;2023-08-08T00:22:56;18.70;77.70
27940;DHT22;15275;51.716;14.324;2023-08-08T00:25:22;18.70;77.90
27940;DHT22;15275;51.716;14.324;2023-08-08T00:27:49;18.70;77.30
27940;DHT22;15275;51.716;14.324;2023-08-08T00:30:15;18.60;79.40
27940;DHT22;15275;51.716;14.324;2023-08-08T00:32:41;18.60;79.60
27940;DHT22;15275;51.716;14.324;2023-08-08T00:35:07;18.60;80.60
27940;DHT22;15275;51.716;14.324;2023-08-08T00:37:33;18.60;81.20
27940;DHT22;15275;51.716;14.324;2023-08-08T00:39:59;18.60;78.50
27940;DHT22;15275;51.716;14.324;2023-08-08T00:42:24;18.60;79.60
27940;DHT22;15275;51.716;14.324;2023-08-08T00:44:50;18.50;77.00
27940;DHT22;15275;51.716;14.324;2023-08-08T00:47:16;18.50;79.70
27940;DHT22;15275;51.716;14.324;2023-08-08T00:49:42;18.50;80.40
27940;DHT22;15275;51.716;14.324;2023-08-08T00:52:09;18.50;76.50
27940;DHT22;15275;51.716;14.324;2023-08-08T00:54:35;18.40;78.70
27940;DHT22;15275;51.716;14.324;2023-08-08T00:57:01;18.40;79.50
27940;DHT22;15275;51.716;14.324;2023-08-08T00:59:27;18.40;75.90
27940;DHT22;15275;51.716;14.324;2023-08-08T01:01:52;18.40;78.80
27940;DHT22;15275;51.716;14.324;2023-08-08T01:04:18;18.40;79.00
27940;DHT22;15275;51.716;14.324;2023-08-08T01:09:40;18.30;80.80
27940;DHT22;15275;51.716;14.324;2023-08-08T01:12:08;18.30;78.40
27940;DHT22;15275;51.716;14.324;2023-08-08T01:14:36;18.30;77.00
27940;DHT22;15275;51.716;14.324;2023-08-08T01:17:03;18.20;76.20
27940;DHT22;15275;51.716;14.324;2023-08-08T01:19:30;18.20;77.30
27940;DHT22;15275;51.716;14.324;2023-08-08T01:21:59;18.20;77.80
27940;DHT22;15275;51.716;14.324;2023-08-08T01:24:28;18.20;78.00
27940;DHT22;15275;51.716;14.324;2023-08-08T01:26:56;18.20;79.20
27940;DHT22;15275;51.716;14.324;2023-08-08T01:29:22;18.20;80.10
27940;DHT22;15275;51.716;14.324;2023-08-08T01:31:48;18.10;81.00
27940;DHT22;15275;51.716;14.324;2023-08-08T01:34:14;18.20;80.80
27940;DHT22;15275;51.716;14.324;2023-08-08T01:39:30;18.10;81.30
27940;DHT22;15275;51.716;14.324;2023-08-08T01:41:58;18.10;81.10
27940;DHT22;15275;51.716;14.324;2023-08-08T01:44:25;18.10;81.80
27940;DHT22;15275;51.716;14.324;2023-08-08T01:46:52;18.10;80.90
27940;DHT22;15275;51.716;14.324;2023-08-08T01:49:18;18.10;82.10
27940;DHT22;15275;51.716;14.324;2023-08-08T01:51:44;18.10;82.00
27940;DHT22;15275;51.716;14.324;2023-08-08T01:54:10;18.10;82.40
27940;DHT22;15275;51.716;14.324;2023-08-08T01:56:36;18.10;82.40
27940;DHT22;15275;51.716;14.324;2023-08-08T01:59:01;18.10;82.40
27940;DHT22;15275;51.716;14.324;2023-08-08T02:01:27;18.10;81.30
27940;DHT22;15275;51.716;14.324;2023-08-08T02:03:53;18.10;82.60
27940;DHT22;15275;51.716;14.324;2023-08-08T02:06:19;18.10;82.20
27940;DHT22;15275;51.716;14.324;2023-08-08T02:08:45;18.00;82.10
27940;DHT22;15275;51.716;14.324;2023-08-08T02:11:11;18.00;81.90
27940;DHT22;15275;51.716;14.324;2023-08-08T02:13:37;18.00;82.60
27940;DHT22;15275;51.716;14.324;2023-08-08T02:16:02;18.00;82.50
27940;DHT22;15275;51.716;14.324;2023-08-08T02:18:29;18.00;82.80
27940;DHT22;15275;51.716;14.324;2023-08-08T02:20:54;18.00;82.60
27940;DHT22;15275;51.716;14.324;2023-08-08T02:23:20;17.90;81.90
27940;DHT22;15275;51.716;14.324;2023-08-08T02:25:46;17.90;81.90
27940;DHT22;15275;51.716;14.324;2023-08-08T02:28:11;17.90;81.80
27940;DHT22;15275;51.716;14.324;2023-08-08T02:30:37;17.90;81.40
27940;DHT22;15275;51.716;14.324;2023-08-08T02:33:03;17.90;80.80
27940;DHT22;15275;51.716;14.324;2023-08-08T02:35:29;17.90;82.00
27940;DHT22;15275;51.716;14.324;2023-08-08T02:37:55;17.90;82.30
27940;DHT22;15275;51.716;14.324;2023-08-08T02:40:21;17.80;82.80
27940;DHT22;15275;51.716;14.324;2023-08-08T02:42:49;17.90;82.70
27940;DHT22;15275;51.716;14.324;2023-08-08T02:45:15;17.80;82.10
27940;DHT22;15275;51.716;14.324;2023-08-08T02:47:41;17.80;82.60
27940;DHT22;15275;51.716;14.324;2023-08-08T02:50:07;17.80;83.00
27940;DHT22;15275;51.716;14.324;2023-08-08T02:52:33;17.80;82.70
27940;DHT22;15275;51.716;14.324;2023-08-08T02:54:58;17.80;83.10
27940;DHT22;15275;51.716;14.324;2023-08-08T02:57:24;17.80;83.30
27940;DHT22;15275;51.716;14.324;2023-08-08T02:59:50;17.80;83.10
27940;DHT22;15275;51.716;14.324;2023-08-08T03:02:16;17.80;83.20
27940;DHT22;15275;51.716;14.324;2023-08-08T03:04:41;17.80;82.80
27940;DHT22;15275;51.716;14.324;2023-08-08T03:07:07;17.70;83.30
27940;DHT22;15275;51.716;14.324;2023-08-08T03:09:33;17.70;83.50
27940;DHT22;15275;51.716;14.324;2023-08-08T03:11:58;17.70;83.20
27940;DHT22;15275;51.716;14.324;2023-08-08T03:14:24;17.70;83.30
27940;DHT22;15275;51.716;14.324;2023-08-08T03:16:50;17.70;81.30
27940;DHT22;15275;51.716;14.324;2023-08-08T03:19:15;17.70;82.30
27940;DHT22;15275;51.716;14.324;2023-08-08T03:21:41;17.70;82.40
27940;DHT22;15275;51.716;14.324;2023-08-08T03:24:07;17.70;83.30
27940;DHT22;15275;51.716;14.324;2023-08-08T03:26:33;17.60;83.10
27940;DHT22;15275;51.716;14.324;2023-08-08T03:28:58;17.60;83.80
27940;DHT22;15275;51.716;14.324;2023-08-08T03:31:24;17.60;83.60
27940;DHT22;15275;51.716;14.324;2023-08-08T03:33:51;17.60;83.70
27940;DHT22;15275;51.716;14.324;2023-08-08T03:36:17;17.60;83.90
27940;DHT22;15275;51.716;14.324;2023-08-08T03:38:42;17.50;83.60
27940;DHT22;15275;51.716;14.324;2023-08-08T03:41:11;17.50;82.90
27940;DHT22;15275;51.716;14.324;2023-08-08T03:43:39;17.50;83.40
27940;DHT22;15275;51.716;14.324;2023-08-08T03:46:05;17.50;83.30
27940;DHT22;15275;51.716;14.324;2023-08-08T03:48:31;17.50;83.60
27940;DHT22;15275;51.716;14.324;2023-08-08T03:50:57;17.50;83.30
27940;DHT22;15275;51.716;14.324;2023-08-08T03:53:23;17.50;83.90
27940;DHT22;15275;51.716;14.324;2023-08-08T03:55:48;17.50;83.70
27940;DHT22;15275;51.716;14.324;2023-08-08T03:58:14;17.50;83.80
27940;DHT22;15275;51.716;14.324;2023-08-08T04:00:40;17.50;84.30
27940;DHT22;15275;51.716;14.324;2023-08-08T04:03:15;17.50;83.60
27940;DHT22;15275;51.716;14.324;2023-08-08T04:05:43;17.50;84.00
27940;DHT22;15275;51.716;14.324;2023-08-08T04:08:11;17.50;83.60
27940;DHT22;15275;51.716;14.324;2023-08-08T04:10:37;17.50;83.90
27940;DHT22;15275;51.716;14.324;2023-08-08T04:13:03;17.50;81.90
27940;DHT22;15275;51.716;14.324;2023-08-08T04:15:29;17.50;83.40
27940;DHT22;15275;51.716;14.324;2023-08-08T04:17:54;17.50;84.00
27940;DHT22;15275;51.716;14.324;2023-08-08T04:20:20;17.50;84.30
27940;DHT22;15275;51.716;14.324;2023-08-08T04:22:46;17.50;83.90
27940;DHT22;15275;51.716;14.324;2023-08-08T04:25:11;17.50;83.90
27940;DHT22;15275;51.716;14.324;2023-08-08T04:27:37;17.60;84.10
27940;DHT22;15275;51.716;14.324;2023-08-08T04:30:03;17.60;84.40
27940;DHT22;15275;51.716;14.324;2023-08-08T04:32:29;17.60;84.40
27940;DHT22;15275;51.716;14.324;2023-08-08T04:34:55;17.70;84.60
27940;DHT22;15275;51.716;14.324;2023-08-08T04:37:21;17.70;83.80
27940;DHT22;15275;51.716;14.324;2023-08-08T04:39:47;17.70;83.40
27940;DHT22;15275;51.716;14.324;2023-08-08T04:42:12;17.70;84.00
27940;DHT22;15275;51.716;14.324;2023-08-08T04:44:38;17.70;83.30
27940;DHT22;15275;51.716;14.324;2023-08-08T04:47:04;17.80;84.10
27940;DHT22;15275;51.716;14.324;2023-08-08T04:49:30;17.80;83.80
27940;DHT22;15275;51.716;14.324;2023-08-08T04:51:55;17.80;82.30
27940;DHT22;15275;51.716;14.324;2023-08-08T04:54:21;17.90;83.40
27940;DHT22;15275;51.716;14.324;2023-08-08T04:56:47;17.90;83.90
27940;DHT22;15275;51.716;14.324;2023-08-08T04:59:12;17.90;83.80
27940;DHT22;15275;51.716;14.324;2023-08-08T05:01:38;17.90;82.80
27940;DHT22;15275;51.716;14.324;2023-08-08T05:04:04;18.00;83.00
27940;DHT22;15275;51.716;14.324;2023-08-08T05:06:30;18.00;81.50
27940;DHT22;15275;51.716;14.324;2023-08-08T05:08:56;18.00;83.40
27940;DHT22;15275;51.716;14.324;2023-08-08T05:11:22;18.10;84.00
27940;DHT22;15275;51.716;14.324;2023-08-08T05:13:48;18.10;83.90
27940;DHT22;15275;51.716;14.324;2023-08-08T05:16:14;18.20;83.90
27940;DHT22;15275;51.716;14.324;2023-08-08T05:18:39;18.20;80.70
27940;DHT22;15275;51.716;14.324;2023-08-08T05:21:06;18.20;79.90
27940;DHT22;15275;51.716;14.324;2023-08-08T05:23:32;18.20;82.30
27940;DHT22;15275;51.716;14.324;2023-08-08T05:25:57;18.30;82.30
27940;DHT22;15275;51.716;14.324;2023-08-08T05:28:23;18.30;83.20
27940;DHT22;15275;51.716;14.324;2023-08-08T05:30:49;18.40;83.50
27940;DHT22;15275;51.716;14.324;2023-08-08T05:33:15;18.40;82.70
27940;DHT22;15275;51.716;14.324;2023-08-08T05:35:40;18.50;82.90
27940;DHT22;15275;51.716;14.324;2023-08-08T05:38:06;18.60;84.20
27940;DHT22;15275;51.716;14.324;2023-08-08T05:40:35;18.70;84.20
27940;DHT22;15275;51.716;14.324;2023-08-08T05:43:03;18.80;84.50
27940;DHT22;15275;51.716;14.324;2023-08-08T05:45:29;18.90;83.90
27940;DHT22;15275;51.716;14.324;2023-08-08T05:47:55;19.00;84.10
27940;DHT22;15275;51.716;14.324;2023-08-08T05:50:21;19.10;83.00
27940;DHT22;15275;51.716;14.324;2023-08-08T05:52:47;19.10;82.70
27940;DHT22;15275;51.716;14.324;2023-08-08T05:55:13;19.20;78.20
27940;DHT22;15275;51.716;14.324;2023-08-08T05:57:39;19.20;76.70
27940;DHT22;15275;51.716;14.324;2023-08-08T06:00:05;19.30;81.20
27940;DHT22;15275;51.716;14.324;2023-08-08T06:02:33;19.30;81.80
27940;DHT22;15275;51.716;14.324;2023-08-08T06:04:59;19.40;82.10
27940;DHT22;15275;51.716;14.324;2023-08-08T06:07:25;19.50;82.50
27940;DHT22;15275;51.716;14.324;2023-08-08T06:09:50;19.50;82.40
27940;DHT22;15275;51.716;14.324;2023-08-08T06:12:16;19.60;82.40
27940;DHT22;15275;51.716;14.324;2023-08-08T06:14:42;19.60;81.00
27940;DHT22;15275;51.716;14.324;2023-08-08T06:17:08;19.60;82.30
27940;DHT22;15275;51.716;14.324;2023-08-08T06:19:34;19.60;81.50
27940;DHT22;15275;51.716;14.324;2023-08-08T06:21:59;19.60;82.10
27940;DHT22;15275;51.716;14.324;2023-08-08T06:24:25;19.60;79.70
27940;DHT22;15275;51.716;14.324;2023-08-08T06:26:51;19.70;81.20
27940;DHT22;15275;51.716;14.324;2023-08-08T06:29:16;19.70;75.10
27940;DHT22;15275;51.716;14.324;2023-08-08T06:31:42;19.80;78.70
27940;DHT22;15275;51.716;14.324;2023-08-08T06:34:08;19.90;81.00
27940;DHT22;15275;51.716;14.324;2023-08-08T06:36:34;19.90;78.60
27940;DHT22;15275;51.716;14.324;2023-08-08T06:39:00;20.00;80.30
27940;DHT22;15275;51.716;14.324;2023-08-08T06:41:25;20.10;81.10
27940;DHT22;15275;51.716;14.324;2023-08-08T06:43:51;20.10;82.00
27940;DHT22;15275;51.716;14.324;2023-08-08T06:46:17;20.20;81.60
27940;DHT22;15275;51.716;14.324;2023-08-08T06:48:46;20.30;81.70
27940;DHT22;15275;51.716;14.324;2023-08-08T06:51:12;20.40;82.00
27940;DHT22;15275;51.716;14.324;2023-08-08T06:53:37;20.60;81.60
27940;DHT22;15275;51.716;14.324;2023-08-08T06:56:03;20.70;79.40
27940;DHT22;15275;51.716;14.324;2023-08-08T06:58:29;20.80;77.50
27940;DHT22;15275;51.716;14.324;2023-08-08T07:00:55;20.80;78.20
27940;DHT22;15275;51.716;14.324;2023-08-08T07:03:20;20.90;78.90
27940;DHT22;15275;51.716;14.324;2023-08-08T07:05:46;20.90;78.30
27940;DHT22;15275;51.716;14.324;2023-08-08T07:08:17;20.90;80.00
27940;DHT22;15275;51.716;14.324;2023-08-08T07:10:44;20.90;79.30
27940;DHT22;15275;51.716;14.324;2023-08-08T07:13:10;20.90;80.20
27940;DHT22;15275;51.716;14.324;2023-08-08T07:15:35;20.90;80.30
27940;DHT22;15275;51.716;14.324;2023-08-08T07:18:02;20.90;80.50
27940;DHT22;15275;51.716;14.324;2023-08-08T07:20:28;21.00;81.50
27940;DHT22;15275;51.716;14.324;2023-08-08T07:22:54;21.00;81.40
27940;DHT22;15275;51.716;14.324;2023-08-08T07:25:20;21.10;81.30
27940;DHT22;15275;51.716;14.324;2023-08-08T07:27:45;21.20;81.90
27940;DHT22;15275;51.716;14.324;2023-08-08T07:30:11;21.20;82.00
27940;DHT22;15275;51.716;14.324;2023-08-08T07:32:37;21.30;81.80
27940;DHT22;15275;51.716;14.324;2023-08-08T07:35:03;21.30;82.00
27940;DHT22;15275;51.716;14.324;2023-08-08T07:37:31;21.40;82.20
27940;DHT22;15275;51.716;14.324;2023-08-08T07:39:58;21.50;82.60
27940;DHT22;15275;51.716;14.324;2023-08-08T07:42:23;21.60;82.70
27940;DHT22;15275;51.716;14.324;2023-08-08T07:44:49;21.60;81.20
27940;DHT22;15275;51.716;14.324;2023-08-08T07:47:15;21.60;80.50
27940;DHT22;15275;51.716;14.324;2023-08-08T07:49:41;21.60;81.30
27940;DHT22;15275;51.716;14.324;2023-08-08T07:52:06;21.60;81.60
27940;DHT22;15275;51.716;14.324;2023-08-08T07:54:33;21.70;81.40
27940;DHT22;15275;51.716;14.324;2023-08-08T07:56:59;21.70;81.40
27940;DHT22;15275;51.716;14.324;2023-08-08T07:59:25;21.70;81.40
27940;DHT22;15275;51.716;14.324;2023-08-08T08:01:51;21.80;81.50
27940;DHT22;15275;51.716;14.324;2023-08-08T08:04:17;21.90;82.10
27940;DHT22;15275;51.716;14.324;2023-08-08T08:06:43;21.90;81.70
27940;DHT22;15275;51.716;14.324;2023-08-08T08:09:08;22.00;80.90
27940;DHT22;15275;51.716;14.324;2023-08-08T08:11:34;22.00;78.70
27940;DHT22;15275;51.716;14.324;2023-08-08T08:14:00;22.00;78.90
27940;DHT22;15275;51.716;14.324;2023-08-08T08:16:25;22.00;79.40
27940;DHT22;15275;51.716;14.324;2023-08-08T08:18:51;22.00;79.00
27940;DHT22;15275;51.716;14.324;2023-08-08T08:21:17;22.00;79.90
27940;DHT22;15275;51.716;14.324;2023-08-08T08:23:43;22.00;79.60
27940;DHT22;15275;51.716;14.324;2023-08-08T08:26:09;22.10;78.80
27940;DHT22;15275;51.716;14.324;2023-08-08T08:28:35;22.20;78.80
27940;DHT22;15275;51.716;14.324;2023-08-08T08:31:05;22.20;76.00
27940;DHT22;15275;51.716;14.324;2023-08-08T08:33:31;22.30;79.70
27940;DHT22;15275;51.716;14.324;2023-08-08T08:35:57;22.30;73.40
27940;DHT22;15275;51.716;14.324;2023-08-08T08:38:22;22.40;76.90
27940;DHT22;15275;51.716;14.324;2023-08-08T08:40:48;22.40;78.90
27940;DHT22;15275;51.716;14.324;2023-08-08T08:43:14;22.50;72.10
27940;DHT22;15275;51.716;14.324;2023-08-08T08:45:41;22.50;75.70
27940;DHT22;15275;51.716;14.324;2023-08-08T08:48:09;22.60;72.30
27940;DHT22;15275;51.716;14.324;2023-08-08T08:50:38;22.60;77.60
27940;DHT22;15275;51.716;14.324;2023-08-08T08:53:05;22.60;75.20
27940;DHT22;15275;51.716;14.324;2023-08-08T08:55:31;22.50;77.50
27940;DHT22;15275;51.716;14.324;2023-08-08T08:57:57;22.60;73.30
27940;DHT22;15275;51.716;14.324;2023-08-08T09:00:23;22.50;72.20
27940;DHT22;15275;51.716;14.324;2023-08-08T09:02:51;22.50;72.70
27940;DHT22;15275;51.716;14.324;2023-08-08T09:05:18;22.50;67.90
27940;DHT22;15275;51.716;14.324;2023-08-08T09:07:46;22.60;75.20
27940;DHT22;15275;51.716;14.324;2023-08-08T09:10:13;22.60;75.70
27940;DHT22;15275;51.716;14.324;2023-08-08T09:12:40;22.70;78.90
27940;DHT22;15275;51.716;14.324;2023-08-08T09:15:06;22.80;79.60
27940;DHT22;15275;51.716;14.324;2023-08-08T09:17:33;22.90;78.70
27940;DHT22;15275;51.716;14.324;2023-08-08T09:19:58;23.00;79.80
27940;DHT22;15275;51.716;14.324;2023-08-08T09:22:24;23.00;76.70
27940;DHT22;15275;51.716;14.324;2023-08-08T09:24:52;23.10;75.10
27940;DHT22;15275;51.716;14.324;2023-08-08T09:27:17;23.20;72.10
27940;DHT22;15275;51.716;14.324;2023-08-08T09:29:43;23.20;76.00
27940;DHT22;15275;51.716;14.324;2023-08-08T09:32:09;23.30;74.00
27940;DHT22;15275;51.716;14.324;2023-08-08T09:34:35;23.30;77.90
27940;DHT22;15275;51.716;14.324;2023-08-08T09:37:00;23.30;68.00
27940;DHT22;15275;51.716;14.324;2023-08-08T09:39:28;23.40;77.40
27940;DHT22;15275;51.716;14.324;2023-08-08T09:41:55;23.40;76.30
27940;DHT22;15275;51.716;14.324;2023-08-08T09:44:25;23.50;78.40
27940;DHT22;15275;51.716;14.324;2023-08-08T09:46:51;23.50;79.10
27940;DHT22;15275;51.716;14.324;2023-08-08T09:49:17;23.60;79.10
27940;DHT22;15275;51.716;14.324;2023-08-08T09:51:43;23.60;78.40
27940;DHT22;15275;51.716;14.324;2023-08-08T09:54:09;23.70;78.00
27940;DHT22;15275;51.716;14.324;2023-08-08T09:56:35;23.80;77.20
27940;DHT22;15275;51.716;14.324;2023-08-08T09:59:01;23.90;78.10
27940;DHT22;15275;51.716;14.324;2023-08-08T10:01:27;24.00;73.70
27940;DHT22;15275;51.716;14.324;2023-08-08T10:03:53;24.00;76.80
27940;DHT22;15275;51.716;14.324;2023-08-08T10:06:19;24.10;76.80
27940;DHT22;15275;51.716;14.324;2023-08-08T10:08:45;24.20;76.50
27940;DHT22;15275;51.716;14.324;2023-08-08T10:11:11;24.20;75.50
27940;DHT22;15275;51.716;14.324;2023-08-08T10:13:37;24.20;75.20
27940;DHT22;15275;51.716;14.324;2023-08-08T10:16:04;24.20;76.80
27940;DHT22;15275;51.716;14.324;2023-08-08T10:18:33;24.20;76.80
27940;DHT22;15275;51.716;14.324;2023-08-08T10:20:59;24.20;75.00
27940;DHT22;15275;51.716;14.324;2023-08-08T10:23:25;24.20;73.80
27940;DHT22;15275;51.716;14.324;2023-08-08T10:25:51;24.20;70.30
27940;DHT22;15275;51.716;14.324;2023-08-08T10:28:21;24.30;71.50
27940;DHT22;15275;51.716;14.324;2023-08-08T10:30:54;24.30;75.60
27940;DHT22;15275;51.716;14.324;2023-08-08T10:33:25;24.30;76.20
27940;DHT22;15275;51.716;14.324;2023-08-08T10:36:04;24.30;77.40
27940;DHT22;15275;51.716;14.324;2023-08-08T10:38:47;24.30;78.60
27940;DHT22;15275;51.716;14.324;2023-08-08T10:41:18;24.40;78.70
27940;DHT22;15275;51.716;14.324;2023-08-08T10:43:54;24.40;75.80
27940;DHT22;15275;51.716;14.324;2023-08-08T10:46:23;24.40;76.90
27940;DHT22;15275;51.716;14.324;2023-08-08T10:48:59;24.50;75.70
27940;DHT22;15275;51.716;14.324;2023-08-08T10:51:37;24.50;74.90
27940;DHT22;15275;51.716;14.324;2023-08-08T10:54:09;24.50;71.80
27940;DHT22;15275;51.716;14.324;2023-08-08T10:56:38;24.50;77.20
27940;DHT22;15275;51.716;14.324;2023-08-08T10:59:14;24.50;75.10
27940;DHT22;15275;51.716;14.324;2023-08-08T11:01:42;24.50;77.80
27940;DHT22;15275;51.716;14.324;2023-08-08T11:04:10;24.60;77.80
27940;DHT22;15275;51.716;14.324;2023-08-08T11:06:36;24.70;69.90
27940;DHT22;15275;51.716;14.324;2023-08-08T11:09:04;24.80;76.20
27940;DHT22;15275;51.716;14.324;2023-08-08T11:11:35;24.80;77.90
27940;DHT22;15275;51.716;14.324;2023-08-08T11:14:09;24.80;64.80
27940;DHT22;15275;51.716;14.324;2023-08-08T11:16:35;24.80;72.40
27940;DHT22;15275;51.716;14.324;2023-08-08T11:19:01;24.70;72.90
27940;DHT22;15275;51.716;14.324;2023-08-08T11:21:26;24.70;73.00
27940;DHT22;15275;51.716;14.324;2023-08-08T11:23:52;24.70;71.30
27940;DHT22;15275;51.716;14.324;2023-08-08T11:26:18;24.70;73.10
27940;DHT22;15275;51.716;14.324;2023-08-08T11:28:51;24.80;75.40
27940;DHT22;15275;51.716;14.324;2023-08-08T11:31:20;24.80;76.10
27940;DHT22;15275;51.716;14.324;2023-08-08T11:33:47;24.80;74.80
27940;DHT22;15275;51.716;14.324;2023-08-08T11:36:14;24.80;77.70
27940;DHT22;15275;51.716;14.324;2023-08-08T11:38:40;24.80;72.40
27940;DHT22;15275;51.716;14.324;2023-08-08T11:41:12;24.90;73.70
27940;DHT22;15275;51.716;14.324;2023-08-08T11:43:39;24.90;76.10
27940;DHT22;15275;51.716;14.324;2023-08-08T11:46:09;24.90;76.40
27940;DHT22;15275;51.716;14.324;2023-08-08T11:48:37;24.90;72.40
27940;DHT22;15275;51.716;14.324;2023-08-08T11:51:04;24.90;75.70
27940;DHT22;15275;51.716;14.324;2023-08-08T11:53:30;24.90;77.00
27940;DHT22;15275;51.716;14.324;2023-08-08T11:55:56;24.90;74.10
27940;DHT22;15275;51.716;14.324;2023-08-08T11:58:23;25.00;74.90
27940;DHT22;15275;51.716;14.324;2023-08-08T12:00:50;25.00;74.40
27940;DHT22;15275;51.716;14.324;2023-08-08T12:03:17;25.00;73.30
27940;DHT22;15275;51.716;14.324;2023-08-08T12:05:47;25.10;70.70
27940;DHT22;15275;51.716;14.324;2023-08-08T12:08:17;25.20;75.90
27940;DHT22;15275;51.716;14.324;2023-08-08T12:10:52;25.30;73.10
27940;DHT22;15275;51.716;14.324;2023-08-08T12:13:20;25.40;71.80
27940;DHT22;15275;51.716;14.324;2023-08-08T12:15:47;25.50;60.80
27940;DHT22;15275;51.716;14.324;2023-08-08T12:18:15;25.60;67.00
27940;DHT22;15275;51.716;14.324;2023-08-08T12:20:43;25.70;75.50
27940;DHT22;15275;51.716;14.324;2023-08-08T12:23:09;25.90;70.10
27940;DHT22;15275;51.716;14.324;2023-08-08T12:25:34;26.00;76.30
27940;DHT22;15275;51.716;14.324;2023-08-08T12:28:01;26.10;70.90
27940;DHT22;15275;51.716;14.324;2023-08-08T12:30:27;26.20;67.60
27940;DHT22;15275;51.716;14.324;2023-08-08T12:32:53;26.20;74.90
27940;DHT22;15275;51.716;14.324;2023-08-08T12:35:19;26.30;75.10
27940;DHT22;15275;51.716;14.324;2023-08-08T12:37:46;26.40;75.10
27940;DHT22;15275;51.716;14.324;2023-08-08T12:40:12;26.40;72.80
27940;DHT22;15275;51.716;14.324;2023-08-08T12:42:38;26.40;67.10
27940;DHT22;15275;51.716;14.324;2023-08-08T12:45:05;26.30;67.60
27940;DHT22;15275;51.716;14.324;2023-08-08T12:47:31;26.30;69.00
27940;DHT22;15275;51.716;14.324;2023-08-08T12:49:57;26.20;72.70
27940;DHT22;15275;51.716;14.324;2023-08-08T12:52:23;26.20;74.80
27940;DHT22;15275;51.716;14.324;2023-08-08T12:54:49;26.10;74.70
27940;DHT22;15275;51.716;14.324;2023-08-08T12:57:14;26.10;73.50
27940;DHT22;15275;51.716;14.324;2023-08-08T12:59:40;26.10;70.70
27940;DHT22;15275;51.716;14.324;2023-08-08T13:02:07;26.20;74.90
27940;DHT22;15275;51.716;14.324;2023-08-08T13:04:33;26.20;74.20
27940;DHT22;15275;51.716;14.324;2023-08-08T13:06:58;26.20;71.80
27940;DHT22;15275;51.716;14.324;2023-08-08T13:09:24;26.20;72.00
27940;DHT22;15275;51.716;14.324;2023-08-08T13:11:50;26.20;68.70
27940;DHT22;15275;51.716;14.324;2023-08-08T13:14:16;26.20;71.80
27940;DHT22;15275;51.716;14.324;2023-08-08T13:16:41;26.30;72.70
27940;DHT22;15275;51.716;14.324;2023-08-08T13:19:07;26.40;74.90
27940;DHT22;15275;51.716;14.324;2023-08-08T13:21:33;26.50;74.50
27940;DHT22;15275;51.716;14.324;2023-08-08T13:23:59;26.60;73.90
27940;DHT22;15275;51.716;14.324;2023-08-08T13:26:25;26.60;71.20
27940;DHT22;15275;51.716;14.324;2023-08-08T13:28:51;26.70;73.20
27940;DHT22;15275;51.716;14.324;2023-08-08T13:31:16;26.70;72.40
27940;DHT22;15275;51.716;14.324;2023-08-08T13:33:42;26.70;72.00
27940;DHT22;15275;51.716;14.324;2023-08-08T13:36:08;26.70;71.20
27940;DHT22;15275;51.716;14.324;2023-08-08T13:38:34;26.80;68.60
27940;DHT22;15275;51.716;14.324;2023-08-08T13:41:00;26.80;72.70
27940;DHT22;15275;51.716;14.324;2023-08-08T13:43:26;26.80;70.10
27940;DHT22;15275;51.716;14.324;2023-08-08T13:45:52;26.80;72.20
27940;DHT22;15275;51.716;14.324;2023-08-08T13:48:18;26.80;72.80
27940;DHT22;15275;51.716;14.324;2023-08-08T13:50:43;26.90;75.80
27940;DHT22;15275;51.716;14.324;2023-08-08T13:53:09;26.90;73.40
27940;DHT22;15275;51.716;14.324;2023-08-08T13:55:35;26.90;70.10
27940;DHT22;15275;51.716;14.324;2023-08-08T13:58:05;26.90;73.20
27940;DHT22;15275;51.716;14.324;2023-08-08T14:00:33;26.80;72.40
27940;DHT22;15275;51.716;14.324;2023-08-08T14:03:00;26.70;72.80
27940;DHT22;15275;51.716;14.324;2023-08-08T14:05:26;26.60;66.10
27940;DHT22;15275;51.716;14.324;2023-08-08T14:07:53;26.30;75.90
27940;DHT22;15275;51.716;14.324;2023-08-08T14:10:19;25.90;77.00
27940;DHT22;15275;51.716;14.324;2023-08-08T14:12:45;25.50;78.00
27940;DHT22;15275;51.716;14.324;2023-08-08T14:15:11;25.10;74.90
27940;DHT22;15275;51.716;14.324;2023-08-08T14:17:37;24.90;77.40
27940;DHT22;15275;51.716;14.324;2023-08-08T14:20:02;24.60;74.40
27940;DHT22;15275;51.716;14.324;2023-08-08T14:22:30;24.50;73.40
27940;DHT22;15275;51.716;14.324;2023-08-08T14:24:56;24.30;77.50
27940;DHT22;15275;51.716;14.324;2023-08-08T14:27:22;24.30;79.00
27940;DHT22;15275;51.716;14.324;2023-08-08T14:29:48;24.30;78.60
27940;DHT22;15275;51.716;14.324;2023-08-08T14:32:14;24.30;76.80
27940;DHT22;15275;51.716;14.324;2023-08-08T14:34:39;24.30;79.50
27940;DHT22;15275;51.716;14.324;2023-08-08T14:37:05;24.40;79.90
27940;DHT22;15275;51.716;14.324;2023-08-08T14:39:31;24.50;80.60
27940;DHT22;15275;51.716;14.324;2023-08-08T14:41:57;24.60;77.10
27940;DHT22;15275;51.716;14.324;2023-08-08T14:44:23;24.70;75.30
27940;DHT22;15275;51.716;14.324;2023-08-08T14:46:48;24.80;73.00
27940;DHT22;15275;51.716;14.324;2023-08-08T14:49:14;24.80;70.90
27940;DHT22;15275;51.716;14.324;2023-08-08T14:51:40;24.80;74.90
27940;DHT22;15275;51.716;14.324;2023-08-08T14:54:06;24.80;78.10
27940;DHT22;15275;51.716;14.324;2023-08-08T14:56:31;24.80;78.50
27940;DHT22;15275;51.716;14.324;2023-08-08T14:58:57;24.70;78.90
27940;DHT22;15275;51.716;14.324;2023-08-08T15:01:23;24.70;77.40
27940;DHT22;15275;51.716;14.324;2023-08-08T15:03:50;24.50;76.60
27940;DHT22;15275;51.716;14.324;2023-08-08T15:06:16;24.30;78.50
27940;DHT22;15275;51.716;14.324;2023-08-08T15:08:41;23.80;86.20
27940;DHT22;15275;51.716;14.324;2023-08-08T15:11:07;23.30;86.50
27940;DHT22;15275;51.716;14.324;2023-08-08T15:13:33;22.80;86.80
27940;DHT22;15275;51.716;14.324;2023-08-08T15:15:59;22.30;87.60